TimeEDT,TemperatureF,Dew PointF,Humidity,Sea Level PressureIn,VisibilityMPH,Wind Direction,Wind SpeedMPH,Gust SpeedMPH,PrecipitationIn,Events,Conditions,WindDirDegrees,DateUTC
12:45 AM,68.0,68.0,100,29.93,10.0,Calm,Calm,-,N/A,,Scattered Clouds,0,2013-08-28 04:45:00
1:45 AM,69.8,68.0,94,29.91,10.0,Calm,Calm,-,N/A,,Mostly Cloudy,0,2013-08-28 05:45:00
2:45 AM,68.0,68.0,100,29.90,10.0,Calm,Calm,-,N/A,,Mostly Cloudy,0,2013-08-28 06:45:00
3:45 AM,68.0,68.0,100,29.89,10.0,Calm,Calm,-,N/A,,Mostly Cloudy,0,2013-08-28 07:45:00
4:45 AM,66.2,66.2,100,29.90,10.0,Calm,Calm,-,N/A,,Scattered Clouds,0,2013-08-28 08:45:00
5:45 AM,66.2,64.4,94,29.91,1.5,Calm,Calm,-,N/A,,Mist,0,2013-08-28 09:45:00
6:45 AM,66.2,66.2,100,29.92,0.1,Calm,Calm,-,N/A,Fog,Fog,0,2013-08-28 10:45:00
7:45 AM,68.0,68.0,100,29.92,0.2,East,5.8,-,N/A,Fog,Fog,90,2013-08-28 11:45:00
8:45 AM,68.0,68.0,100,29.92,0.2,East,5.8,-,N/A,Fog,Fog,100,2013-08-28 12:45:00
9:15 AM,69.8,69.8,100,29.92,1.5,Calm,Calm,-,N/A,,Mostly Cloudy,0,2013-08-28 13:15:00
9:45 AM,71.6,71.6,100,29.92,5.0,Variable,3.5,-,N/A,,Scattered Clouds,0,2013-08-28 13:45:00
10:55 AM,78.8,71.6,78,29.91,15.0,Variable,3.5,-,N/A,,Partly Cloudy,0,2013-08-28 14:55:00
11:45 AM,80.6,71.6,74,29.90,10.0,Calm,Calm,-,N/A,,Scattered Clouds,0,2013-08-28 15:45:00
12:45 PM,82.4,71.6,70,29.89,15.0,Variable,5.8,-,N/A,,Mostly Cloudy,0,2013-08-28 16:45:00
1:45 PM,84.2,69.8,62,29.88,10.0,Variable,4.6,-,N/A,,Mostly Cloudy,0,2013-08-28 17:45:00
3:45 PM,69.8,68.0,94,29.91,4.0,West,6.9,-,N/A,Rain,Light Rain,260,2013-08-28 19:45:00
4:45 PM,69.8,68.0,94,29.89,4.0,WNW,9.2,-,N/A,Rain,Light Rain,290,2013-08-28 20:45:00
6:45 PM,71.6,69.8,94,29.89,4.0,Calm,Calm,-,N/A,,Mostly Cloudy,0,2013-08-28 22:45:00
8:45 PM,69.8,69.8,100,29.93,4.0,East,5.8,-,N/A,,Mostly Cloudy,80,2013-08-29 00:45:00
10:45 PM,68.0,68.0,100,29.92,0.5,Variable,3.5,-,N/A,Fog,Fog,0,2013-08-29 02:45:00
11:45 PM,68.0,68.0,100,29.94,0.1,Variable,5.8,-,N/A,,Unknown,0,2013-08-29 03:45:00